DLH9LV EDDM-EIDW
Flight info
| Callsign | DLH9LV |
|---|---|
| Flight time | N/A |
| Altitude | 34000 |
| Route | GIVMI1N GIVMI Y101 IBAGA DCT MASEK DCT MAPOX DCT RAVLO Y70 OTBED L60 PENIL UL28 LELDO M145 BAGSO BAGSO4L |
| Aircraft | A321/M-SDE3FGHIRWY/LB1 |
Departure
| Time | 2026-05-05 15:55 |
|---|---|
| Airport | Munich Airport (EDDM) |
Arrival
| Time | N/A |
|---|---|
| Airport | Dublin Airport (EIDW) |
| Time | Latitude | Longitude | Altitude | Speed | Heading |
|---|---|---|---|---|---|
| 2026-05-05 15:31 | 48.35620 | 11.79722 | 1473 ft | 0 kts | 83° |
| 2026-05-05 15:42 | 48.35620 | 11.79723 | 1473 ft | 0 kts | 83° |
| 2026-05-05 15:43 | 48.35620 | 11.79724 | 1473 ft | 0 kts | 84° |
| 2026-05-05 15:43 | 48.35620 | 11.79704 | 1473 ft | 2 kts | 88° |
| 2026-05-05 15:43 | 48.35618 | 11.79682 | 1473 ft | 2 kts | 81° |
| 2026-05-05 15:44 | 48.35616 | 11.79659 | 1473 ft | 2 kts | 84° |
| 2026-05-05 15:44 | 48.35614 | 11.79636 | 1474 ft | 2 kts | 83° |
| 2026-05-05 15:44 | 48.35613 | 11.79622 | 1474 ft | 1 kts | 83° |
| 2026-05-05 15:44 | 48.35610 | 11.79600 | 1474 ft | 2 kts | 58° |
| 2026-05-05 15:45 | 48.35601 | 11.79584 | 1474 ft | 2 kts | 39° |
| 2026-05-05 15:45 | 48.35587 | 11.79573 | 1474 ft | 2 kts | 16° |
| 2026-05-05 15:45 | 48.35574 | 11.79570 | 1474 ft | 0 kts | 355° |
| 2026-05-05 15:45 | 48.35567 | 11.79571 | 1474 ft | 1 kts | 352° |
| 2026-05-05 15:46 | 48.35566 | 11.79571 | 1474 ft | 0 kts | 352° |
| 2026-05-05 15:47 | 48.35576 | 11.79570 | 1474 ft | 5 kts | 352° |
| 2026-05-05 15:47 | 48.35675 | 11.79551 | 1474 ft | 13 kts | 353° |
| 2026-05-05 15:47 | 48.35767 | 11.79534 | 1473 ft | 13 kts | 353° |
| 2026-05-05 15:48 | 48.35857 | 11.79518 | 1472 ft | 13 kts | 352° |
| 2026-05-05 15:48 | 48.35952 | 11.79502 | 1471 ft | 15 kts | 355° |
| 2026-05-05 15:48 | 48.36057 | 11.79486 | 1471 ft | 14 kts | 353° |
| 2026-05-05 15:48 | 48.36155 | 11.79469 | 1470 ft | 13 kts | 354° |
| 2026-05-05 15:49 | 48.36218 | 11.79545 | 1469 ft | 13 kts | 74° |
| 2026-05-05 15:49 | 48.36230 | 11.79684 | 1469 ft | 13 kts | 83° |
| 2026-05-05 15:49 | 48.36241 | 11.79821 | 1468 ft | 13 kts | 83° |
| 2026-05-05 15:49 | 48.36252 | 11.79957 | 1467 ft | 13 kts | 83° |
| 2026-05-05 15:50 | 48.36263 | 11.80106 | 1466 ft | 16 kts | 84° |
| 2026-05-05 15:50 | 48.36276 | 11.80275 | 1465 ft | 16 kts | 83° |
| 2026-05-05 15:50 | 48.36289 | 11.80439 | 1464 ft | 15 kts | 83° |
| 2026-05-05 15:50 | 48.36301 | 11.80599 | 1463 ft | 15 kts | 83° |
| 2026-05-05 15:51 | 48.36313 | 11.80759 | 1463 ft | 15 kts | 83° |
| 2026-05-05 15:51 | 48.36326 | 11.80919 | 1462 ft | 15 kts | 83° |
| 2026-05-05 15:51 | 48.36338 | 11.81084 | 1461 ft | 17 kts | 83° |
| 2026-05-05 15:51 | 48.36352 | 11.81261 | 1460 ft | 16 kts | 83° |
| 2026-05-05 15:52 | 48.36366 | 11.81432 | 1459 ft | 16 kts | 83° |
| 2026-05-05 15:52 | 48.36378 | 11.81596 | 1459 ft | 15 kts | 84° |
| 2026-05-05 15:52 | 48.36389 | 11.81749 | 1458 ft | 14 kts | 83° |
| 2026-05-05 15:52 | 48.36398 | 11.81896 | 1458 ft | 13 kts | 97° |
| 2026-05-05 15:53 | 48.36435 | 11.81996 | 1458 ft | 12 kts | 11° |
| 2026-05-05 15:53 | 48.36517 | 11.81992 | 1458 ft | 11 kts | 353° |
| 2026-05-05 15:53 | 48.36594 | 11.81978 | 1458 ft | 11 kts | 353° |
| 2026-05-05 15:53 | 48.36663 | 11.81951 | 1458 ft | 9 kts | 309° |
| 2026-05-05 15:54 | 48.36665 | 11.81829 | 1458 ft | 19 kts | 262° |
| 2026-05-05 15:54 | 48.36628 | 11.81334 | 1459 ft | 81 kts | 263° |
| 2026-05-05 15:54 | 48.36538 | 11.80186 | 1465 ft | 140 kts | 264° |
| 2026-05-05 15:54 | 48.36408 | 11.78481 | 1502 ft | 187 kts | 264° |
| 2026-05-05 15:55 | 48.36267 | 11.76525 | 2086 ft | 190 kts | 265° |
| 2026-05-05 15:55 | 48.36145 | 11.74594 | 2867 ft | 188 kts | 267° |
| 2026-05-05 15:55 | 48.36161 | 11.72681 | 3570 ft | 182 kts | 289° |
| 2026-05-05 15:55 | 48.36953 | 11.71245 | 4026 ft | 186 kts | 326° |
| 2026-05-05 15:56 | 48.38095 | 11.70318 | 4449 ft | 191 kts | 329° |
| 2026-05-05 15:56 | 48.39228 | 11.69206 | 4797 ft | 200 kts | 322° |
| 2026-05-05 15:56 | 48.40373 | 11.67914 | 5083 ft | 214 kts | 322° |
| 2026-05-05 15:56 | 48.41615 | 11.66525 | 5355 ft | 230 kts | 322° |
| 2026-05-05 15:57 | 48.42979 | 11.65035 | 5577 ft | 250 kts | 323° |
| 2026-05-05 15:57 | 48.44418 | 11.63493 | 5891 ft | 266 kts | 324° |
| 2026-05-05 15:57 | 48.45977 | 11.61842 | 6333 ft | 278 kts | 324° |
| 2026-05-05 15:57 | 48.47572 | 11.60168 | 6935 ft | 283 kts | 324° |
| 2026-05-05 15:58 | 48.49184 | 11.58483 | 7627 ft | 285 kts | 324° |
| 2026-05-05 15:58 | 48.50823 | 11.56766 | 8272 ft | 288 kts | 324° |
| 2026-05-05 15:58 | 48.52462 | 11.55048 | 8889 ft | 292 kts | 324° |
| 2026-05-05 15:58 | 48.54142 | 11.53286 | 9481 ft | 296 kts | 324° |
| 2026-05-05 15:59 | 48.55785 | 11.51561 | 10046 ft | 299 kts | 324° |
| 2026-05-05 15:59 | 48.57537 | 11.49721 | 10380 ft | 312 kts | 324° |
| 2026-05-05 15:59 | 48.59345 | 11.47819 | 10646 ft | 327 kts | 324° |
| 2026-05-05 15:59 | 48.61231 | 11.45833 | 10910 ft | 341 kts | 324° |
| 2026-05-05 16:00 | 48.63169 | 11.43792 | 11315 ft | 349 kts | 324° |
| 2026-05-05 16:00 | 48.65174 | 11.41678 | 11929 ft | 351 kts | 324° |
| 2026-05-05 16:00 | 48.67163 | 11.39581 | 12504 ft | 353 kts | 324° |
| 2026-05-05 16:00 | 48.69176 | 11.37455 | 13052 ft | 356 kts | 324° |
| 2026-05-05 16:01 | 48.71195 | 11.35345 | 13588 ft | 359 kts | 324° |
| 2026-05-05 16:01 | 48.73266 | 11.33248 | 14137 ft | 362 kts | 324° |
| 2026-05-05 16:01 | 48.75050 | 11.31457 | 14589 ft | 364 kts | 324° |